SBOSBO AUA / TNCA
Speedbird OnlineSpeedbird Online AUA / TNCA

Queen Beatrix International Airport
22:59 27°C

Location Oranjestad, Aruba
Latitude: 12.5014
Longitude: -70.015198
Local Time 22:59 on 23 Apr 2024
UTC -4 hours (America/Aruba)
Currency £1 equals ANG 2.23
METAR TNCA 240100Z 07014KT 9999 FEW017 28/24 Q1012 NOSIG
TAF TAF TNCA 231717Z 2318/2418 08016KT 8000 FEW025 TEMPO 2406/2418 SCT015 BKN025
Weather As Of 23 Apr 2024 22:59
Description Clear sky
Wind 28 km/h from East (71°)
Cloud Cover 3%
Precipitation Rain: none, Snow: none
Sunrise 06:23
Sunset 18:53
NOTAM 6 active NOTAM
Rotations During the last 90 days there were
21 flights from ANU
21 flights to ANU
Web Wikipedia
Codes IATA: AUA
ICAO: TNCA
Altitude 18 Meter / 60 Feet
Distance 7,553 KM / 4,693 Miles
from London.
Runways
RunwayLength (m)Surface
112743Asphalt
292743Asphalt
Radio
TypeDescriptionFrequency
ATISATIS132.1
GNDGND121.9
MISCSEARCH AND RESCUE123.1
RMPBEATRIX APRON121.6
TWRBEATRIX TWR120.9
Live ATC



Support Speedbird Online

© 2017-2024 Speedbird Online